Time;durP1;ratioP1;P1;durP2;ratioP2;P2;SDS_P1;SDS_P2;PMS_P1;PMS_P2;Temp;Humidity;BMP_temperature;BMP_pressure;BME280_temperature;BME280_humidity;BME280_pressure;Samples;Min_cycle;Max_cycle;Signal;HPM_P1;HPM_P2
2022/06/02 00:01:30;;;;;;;6.37;5.63;;;;;;;22.64;80.04;99527.94;5073817;28;20652;-70
2022/06/02 00:04:05;;;;;;;6.73;4.90;;;;;;;22.68;79.50;99523.59;5074498;28;20188;-69
2022/06/02 00:06:43;;;;;;;9.07;5.37;;;;;;;22.72;79.49;99521.97;5074428;28;20207;-69
2022/06/02 00:09:25;;;;;;;8.87;5.63;;;;;;;22.73;79.57;99526.28;5074708;28;20210;-69
2022/06/02 00:12:03;;;;;;;9.67;5.37;;;;;;;22.75;79.86;99515.97;5074395;28;20189;-69
2022/06/02 00:14:40;;;;;;;6.53;5.30;;;;;;;22.78;79.19;99518.13;5073679;28;20185;-69
2022/06/02 00:17:16;;;;;;;6.17;5.20;;;;;;;22.80;78.55;99510.56;5073503;28;20191;-69
2022/06/02 00:19:49;;;;;;;6.53;5.27;;;;;;;22.82;78.20;99513.00;5073769;28;20233;-68
2022/06/02 00:22:22;;;;;;;6.60;4.53;;;;;;;22.85;78.41;99515.97;5072441;28;20189;-68
2022/06/02 00:24:54;;;;;;;5.03;4.53;;;;;;;22.87;78.59;99507.56;5073289;28;20652;-69
2022/06/02 00:27:29;;;;;;;6.30;5.70;;;;;;;22.77;78.19;99513.81;5073262;28;20246;-68
2022/06/02 00:30:05;;;;;;;6.17;5.03;;;;;;;22.73;77.80;99512.75;5073205;28;20230;-68
2022/06/02 00:32:41;;;;;;;7.00;4.93;;;;;;;22.67;77.58;99505.69;5073175;28;20264;-68
2022/06/02 00:35:22;;;;;;;5.00;4.50;;;;;;;22.64;77.77;99511.69;5073678;28;20188;-68
2022/06/02 00:37:53;;;;;;;5.93;5.23;;;;;;;22.71;77.86;99517.59;5074115;28;20607;-68
2022/06/02 00:40:21;;;;;;;9.77;4.80;;;;;;;22.75;77.40;99526.81;5074084;28;20611;-68
2022/06/02 00:43:00;;;;;;;6.07;4.90;;;;;;;22.78;77.20;99523.56;5073471;28;20253;-68
2022/06/02 00:45:27;;;;;;;5.77;5.10;;;;;;;22.66;76.70;99508.69;5073048;28;20634;-68
2022/06/02 00:48:11;;;;;;;5.93;5.30;;;;;;;22.61;77.01;99522.22;5073866;28;20250;-69
2022/06/02 00:51:01;;;;;;;10.03;5.30;;;;;;;22.53;77.72;99514.66;5073784;28;20243;-69
2022/06/02 00:53:39;;;;;;;8.23;5.43;;;;;;;22.48;77.91;99511.97;5073629;28;20533;-69
2022/06/02 00:59:25;;;;;;;6.87;5.20;;;;;;;22.48;77.01;99507.38;5073571;28;20187;-68
2022/06/02 01:01:53;;;;;;;5.27;4.77;;;;;;;22.39;77.57;99500.84;5073142;28;20262;-69
2022/06/02 01:04:21;;;;;;;6.10;5.23;;;;;;;22.35;78.24;99507.06;5073628;28;20197;-69
2022/06/02 01:07:09;;;;;;;6.43;4.67;;;;;;;22.40;78.06;99507.88;5072340;28;20654;-68
2022/06/02 01:10:06;;;;;;;7.80;4.70;;;;;;;22.45;77.49;99504.34;5073020;28;20242;-68
2022/06/02 01:13:01;;;;;;;7.30;4.77;;;;;;;22.47;76.84;99507.63;5071820;28;20262;-68
2022/06/02 01:15:42;;;;;;;5.00;4.17;;;;;;;22.37;77.64;99503.00;5072318;28;20184;-69
2022/06/02 01:18:22;;;;;;;5.27;4.73;;;;;;;22.34;77.85;99492.72;5072231;28;20184;-68
2022/06/02 01:21:02;;;;;;;5.27;4.80;;;;;;;22.34;78.62;99492.72;5072858;28;20587;-68
2022/06/02 01:24:08;;;;;;;5.30;4.70;;;;;;;22.35;78.55;99491.66;5072561;28;20648;-68
2022/06/02 01:27:08;;;;;;;5.20;4.67;;;;;;;22.36;77.94;99487.84;5072333;28;20204;-69
2022/06/02 01:30:10;;;;;;;5.53;4.70;;;;;;;22.42;77.41;99486.75;5072751;28;20180;-68
2022/06/02 01:32:49;;;;;;;15.63;5.23;;;;;;;22.40;77.13;99482.69;5049472;28;20188;-68
2022/06/02 01:35:29;;;;;;;5.77;4.73;;;;;;;22.28;78.07;99480.28;5072059;28;20239;-68
2022/06/02 01:38:03;;;;;;;7.23;4.97;;;;;;;22.23;78.45;99487.59;5072893;28;20188;-69
2022/06/02 01:40:39;;;;;;;8.93;5.13;;;;;;;22.14;78.33;99492.75;5073161;28;20187;-69
2022/06/02 01:43:14;;;;;;;6.83;5.00;;;;;;;21.83;79.04;99469.47;5073143;28;20246;-69
2022/06/02 01:45:58;;;;;;;6.00;5.43;;;;;;;21.80;78.93;99485.44;5073012;28;20280;-69
2022/06/02 01:48:33;;;;;;;5.40;5.00;;;;;;;21.67;79.28;99484.00;5072571;28;20267;-69
2022/06/02 01:51:08;;;;;;;5.37;5.03;;;;;;;21.59;79.59;99487.22;5072388;28;20232;-71
2022/06/02 01:53:53;;;;;;;8.00;5.30;;;;;;;21.63;79.53;99487.50;5072524;28;20268;-69
2022/06/02 01:56:36;;;;;;;5.53;5.03;;;;;;;21.60;78.60;99493.47;5072103;28;20737;-70
2022/06/02 01:59:24;;;;;;;5.27;4.87;;;;;;;21.52;80.01;99485.88;5072400;28;20249;-69
2022/06/02 02:02:02;;;;;;;5.10;4.60;;;;;;;21.48;79.56;99485.56;5071876;28;20725;-69
2022/06/02 02:04:51;;;;;;;4.90;4.60;;;;;;;21.43;79.17;99492.88;5072061;28;20184;-70
2022/06/02 02:07:28;;;;;;;6.03;4.73;;;;;;;21.34;79.27;99499.84;5070487;28;20277;-70
2022/06/02 02:10:03;;;;;;;10.03;4.50;;;;;;;21.18;80.13;99499.00;5072388;28;20249;-69
2022/06/02 02:12:50;;;;;;;5.90;4.10;;;;;;;21.14;80.15;99500.59;5072863;28;20184;-70
2022/06/02 02:15:27;;;;;;;5.67;4.67;;;;;;;21.05;80.11;99494.09;5071636;28;20246;-70
2022/06/02 02:18:23;;;;;;;5.17;4.33;;;;;;;21.09;80.82;99487.09;5072056;28;20249;-68
2022/06/02 02:21:04;;;;;;;4.13;3.83;;;;;;;21.05;79.88;99496.78;5072204;28;20184;-69
2022/06/02 02:23:39;;;;;;;3.83;3.53;;;;;;;21.08;79.82;99493.56;5071664;28;20218;-71
2022/06/02 02:26:13;;;;;;;5.60;4.10;;;;;;;21.13;79.98;99498.16;5071652;28;20644;-71
2022/06/02 02:28:51;;;;;;;5.57;3.93;;;;;;;21.06;79.32;99498.41;5071893;28;20226;-71
2022/06/02 02:31:42;;;;;;;4.30;4.00;;;;;;;20.99;79.75;99503.22;5071620;28;20202;-71
2022/06/02 02:34:22;;;;;;;4.57;4.13;;;;;;;20.99;79.59;99499.72;5072284;28;20180;-70
2022/06/02 02:36:59;;;;;;;4.13;3.77;;;;;;;20.90;79.87;99502.06;5071996;28;20245;-71
2022/06/02 02:39:34;;;;;;;4.53;4.13;;;;;;;20.86;79.95;99503.69;5072103;28;20195;-70
2022/06/02 02:42:07;;;;;;;5.37;4.10;;;;;;;20.88;80.22;99506.94;5071380;28;20188;-68
2022/06/02 02:44:40;;;;;;;4.87;4.37;;;;;;;20.82;80.33;99501.78;5073421;28;20238;-69
2022/06/02 02:47:12;;;;;;;4.27;3.97;;;;;;;20.61;81.40;99500.84;5075037;28;20273;-69
2022/06/02 02:49:46;;;;;;;5.70;4.27;;;;;;;20.63;81.25;99500.56;5075637;28;20304;-70
2022/06/02 02:52:21;;;;;;;4.50;4.10;;;;;;;20.68;81.61;99498.72;5075328;28;20199;-70
2022/06/02 02:54:55;;;;;;;4.30;3.90;;;;;;;20.73;81.60;99498.75;5075286;28;20565;-69
2022/06/02 02:57:29;;;;;;;4.20;3.83;;;;;;;20.85;80.65;99499.34;5074916;28;20241;-69
2022/06/02 03:00:02;;;;;;;4.57;3.97;;;;;;;20.90;80.91;99509.38;5075512;28;20188;-69
2022/06/02 03:02:33;;;;;;;8.00;4.40;;;;;;;20.97;80.76;99508.09;5075418;28;20188;-69
2022/06/02 03:05:09;;;;;;;5.13;4.17;;;;;;;20.96;79.45;99514.59;5075756;28;20566;-69
2022/06/02 03:07:37;;;;;;;6.80;4.00;;;;;;;20.94;79.57;99505.91;5074993;28;20212;-69
2022/06/02 03:10:09;;;;;;;6.13;4.40;;;;;;;20.92;79.58;99502.69;5075835;28;20261;-69
2022/06/02 03:12:49;;;;;;;7.83;4.47;;;;;;;20.88;79.83;99501.53;5075541;28;20279;-69
2022/06/02 03:15:23;;;;;;;4.83;4.27;;;;;;;20.90;79.75;99504.78;5075149;28;20184;-69
2022/06/02 03:18:14;;;;;;;5.03;3.67;;;;;;;20.86;79.97;99503.69;5075192;28;20220;-69
2022/06/02 03:20:52;;;;;;;3.80;3.50;;;;;;;20.95;80.13;99502.13;5046953;28;20196;-70
2022/06/02 03:23:39;;;;;;;7.80;3.93;;;;;;;21.05;79.36;99499.50;5054511;28;20188;-70
2022/06/02 03:26:13;;;;;;;6.70;4.03;;;;;;;21.09;79.61;99503.28;5054324;28;20284;-70
2022/06/02 03:28:47;;;;;;;6.60;4.23;;;;;;;21.14;78.60;99503.31;5055532;28;20239;-70
2022/06/02 03:31:20;;;;;;;5.80;3.80;;;;;;;21.18;79.03;99512.50;5054255;28;20640;-69
2022/06/02 03:34:02;;;;;;;5.07;4.47;;;;;;;21.26;78.33;99513.88;5055399;28;20184;-69
2022/06/02 03:36:51;;;;;;;6.27;4.83;;;;;;;21.32;78.14;99519.06;5054808;28;20262;-69
2022/06/02 03:39:30;;;;;;;7.50;3.90;;;;;;;21.75;76.61;99518.66;5054567;28;20181;-69
2022/06/02 03:42:13;;;;;;;4.53;4.20;;;;;;;22.03;75.23;99518.16;5054694;28;20242;-69
2022/06/02 03:44:54;;;;;;;5.37;3.90;;;;;;;22.01;75.18;99516.81;5054860;28;20565;-69
2022/06/02 03:47:40;;;;;;;6.00;4.13;;;;;;;22.14;74.49;99527.94;5054009;28;20231;-69
2022/06/02 03:50:45;;;;;;;4.13;3.83;;;;;;;22.27;74.20;99523.84;5054638;28;20228;-69
2022/06/02 03:53:38;;;;;;;4.23;3.80;;;;;;;22.33;73.75;99515.47;5054926;28;20200;-70
2022/06/02 03:56:19;;;;;;;3.90;3.70;;;;;;;22.35;73.36;99524.13;5046148;28;20652;-69
2022/06/02 03:59:02;;;;;;;4.10;3.80;;;;;;;22.41;74.01;99522.25;5054379;28;20252;-69
2022/06/02 04:01:36;;;;;;;3.17;2.90;;;;;;;22.58;73.51;99523.59;5054364;28;20266;-71
2022/06/02 04:04:19;;;;;;;3.00;2.70;;;;;;;23.35;73.89;99526.66;5054138;28;20181;-71
2022/06/02 04:07:01;;;;;;;5.07;3.60;;;;;;;24.93;67.52;99546.72;5054001;28;20209;-74
2022/06/02 04:09:38;;;;;;;3.70;3.40;;;;;;;26.46;60.42;99547.94;5054046;28;20237;-74
2022/06/02 04:15:17;;;;;;;7.83;3.63;;;;;;;29.05;49.98;99563.34;5054086;28;20184;-73
2022/06/02 04:17:50;;;;;;;6.10;3.60;;;;;;;29.77;47.23;99574.72;5053487;28;20189;-73
2022/06/02 04:20:35;;;;;;;8.03;3.63;;;;;;;30.64;44.55;99567.00;5054255;28;20189;-73
2022/06/02 04:23:38;;;;;;;7.80;4.23;;;;;;;31.32;42.18;99555.84;5053710;28;20302;-72
2022/06/02 04:26:20;;;;;;;6.07;4.27;;;;;;;31.69;42.57;99543.19;5053525;28;20192;-72
2022/06/02 04:28:55;;;;;;;14.87;4.13;;;;;;;31.90;41.35;99550.34;5053226;28;20664;-72
2022/06/02 04:31:39;;;;;;;18.40;5.13;;;;;;;32.12;40.15;99551.94;5053159;28;20184;-70
2022/06/02 04:34:15;;;;;;;5.37;4.00;;;;;;;32.20;39.77;99551.88;5053668;28;20184;-71
2022/06/02 04:36:51;;;;;;;4.10;3.70;;;;;;;32.67;38.79;99561.47;5053913;28;20278;-71
2022/06/02 04:39:27;;;;;;;7.17;3.53;;;;;;;33.09;37.92;99554.75;5053376;28;20184;-71
2022/06/02 04:42:02;;;;;;;4.77;3.60;;;;;;;33.42;37.00;99562.13;5053024;28;20276;-69
2022/06/02 04:44:41;;;;;;;6.47;4.13;;;;;;;33.60;36.54;99564.28;5052942;28;20246;-72
2022/06/02 04:47:15;;;;;;;5.50;3.80;;;;;;;34.18;35.23;99557.44;5052770;28;20755;-71
2022/06/02 04:49:50;;;;;;;3.83;3.43;;;;;;;34.27;34.99;99560.84;5051731;28;20285;-72
2022/06/02 04:52:27;;;;;;;8.97;4.33;;;;;;;34.39;34.49;99560.81;5053629;28;20185;-71
2022/06/02 04:55:06;;;;;;;4.23;3.03;;;;;;;34.79;34.03;99564.31;5053066;28;20184;-72
2022/06/02 04:57:41;;;;;;;8.27;3.78;;;;;;;34.62;33.26;99556.38;5053365;28;20188;-72
2022/06/02 05:00:17;;;;;;;5.57;3.22;;;;;;;34.89;32.89;99550.00;5053803;28;20250;-71
2022/06/02 05:02:52;;;;;;;6.65;3.90;;;;;;;34.89;33.44;99567.38;5053170;28;20199;-67
2022/06/02 05:05:28;;;;;;;8.18;3.55;;;;;;;35.27;32.19;99552.97;5053190;28;20620;-67
2022/06/02 05:08:07;;;;;;;9.77;3.92;;;;;;;35.05;32.78;99561.88;5052358;28;20213;-66
2022/06/02 05:10:42;;;;;;;7.05;4.13;;;;;;;34.52;33.61;99552.16;5052621;28;20189;-66
2022/06/02 05:13:18;;;;;;;10.52;4.20;;;;;;;34.38;33.86;99559.22;5062891;28;20176;-66
2022/06/02 05:16:03;;;;;;;4.88;3.88;;;;;;;34.35;34.10;99563.50;5063063;28;20708;-67
2022/06/02 05:19:10;;;;;;;8.60;4.05;;;;;;;34.31;34.39;99559.84;5053421;28;20189;-67
2022/06/02 05:21:52;;;;;;;5.35;3.95;;;;;;;34.61;33.61;99557.50;5052164;28;20557;-68
2022/06/02 05:24:45;;;;;;;11.88;4.30;;;;;;;34.74;33.45;99554.31;5052226;28;20181;-68
2022/06/02 05:27:55;;;;;;;5.22;4.00;;;;;;;35.09;32.15;99555.28;5049965;28;20278;-68
2022/06/02 05:30:51;;;;;;;12.13;4.28;;;;;;;34.73;32.96;99551.91;5052381;28;20605;-67
2022/06/02 05:33:39;;;;;;;11.15;3.67;;;;;;;35.04;32.16;99568.56;5064894;28;20238;-68
2022/06/02 05:36:35;;;;;;;13.82;3.92;;;;;;;35.02;32.34;99563.38;5058872;28;20188;-68
2022/06/02 05:39:23;;;;;;;8.38;3.65;;;;;;;35.19;31.55;99570.53;5069949;28;20200;-67
2022/06/02 05:42:06;;;;;;;8.20;4.95;;;;;;;35.00;32.32;99568.47;5069458;28;20265;-65
2022/06/02 05:44:47;;;;;;;5.28;3.28;;;;;;;34.72;32.99;99561.34;5072119;28;20236;-65
2022/06/02 05:47:28;;;;;;;7.38;3.75;;;;;;;34.44;33.65;99568.84;5071791;28;20741;-66
2022/06/02 05:50:03;;;;;;;4.15;3.45;;;;;;;34.61;32.86;99555.56;5062282;28;20282;-67
2022/06/02 05:52:40;;;;;;;7.22;4.00;;;;;;;34.72;32.86;99556.66;5052123;28;20280;-68
2022/06/02 05:55:35;;;;;;;7.10;3.42;;;;;;;34.68;33.28;99563.22;5056100;28;20199;-67
2022/06/02 05:58:47;;;;;;;4.82;3.40;;;;;;;34.37;33.79;99566.69;5072000;28;20233;-67
2022/06/02 06:01:24;;;;;;;13.30;3.78;;;;;;;34.08;34.26;99574.47;5043910;28;20198;-67
2022/06/02 06:04:10;;;;;;;3.88;3.45;;;;;;;34.04;34.43;99566.09;5071719;28;20206;-68
2022/06/02 06:06:44;;;;;;;8.45;3.85;;;;;;;34.43;33.55;99564.50;5072247;28;20238;-67
2022/06/02 06:09:20;;;;;;;7.03;4.03;;;;;;;35.04;33.42;99568.56;5072349;28;20188;-65
2022/06/02 06:12:17;;;;;;;9.38;4.15;;;;;;;35.12;33.20;99570.34;5071649;28;20187;-66
2022/06/02 06:14:56;;;;;;;4.00;3.58;;;;;;;34.98;33.39;99570.00;5071743;28;20192;-66
2022/06/02 06:17:36;;;;;;;5.38;3.92;;;;;;;34.59;34.24;99565.34;5071643;28;20188;-66
2022/06/02 06:20:12;;;;;;;4.90;3.88;;;;;;;34.35;34.40;99569.00;5075062;28;20750;-67
2022/06/02 06:23:03;;;;;;;9.80;4.38;;;;;;;34.39;34.81;99566.34;5075590;28;20647;-66
2022/06/02 06:25:50;;;;;;;5.38;3.47;;;;;;;34.14;34.98;99562.03;5076183;28;20187;-67
2022/06/02 06:28:20;;;;;;;4.45;3.60;;;;;;;34.31;34.37;99557.06;5076643;28;20265;-66
2022/06/02 06:31:02;;;;;;;6.35;4.22;;;;;;;34.62;33.85;99553.59;5075424;28;20187;-66
2022/06/02 06:33:50;;;;;;;11.35;4.53;;;;;;;34.40;33.92;99560.47;5075093;28;20659;-67
2022/06/02 06:36:41;;;;;;;5.88;3.92;;;;;;;34.09;34.68;99554.00;5075622;28;20241;-67
2022/06/02 06:39:19;;;;;;;5.93;4.20;;;;;;;34.06;34.89;99549.19;5076493;28;20246;-67
2022/06/02 06:42:02;;;;;;;4.27;3.87;;;;;;;34.44;34.44;99544.00;5075108;28;20627;-66
2022/06/02 06:44:38;;;;;;;11.02;4.22;;;;;;;34.72;33.56;99529.03;5076033;28;20188;-68
2022/06/02 06:47:10;;;;;;;4.75;3.92;;;;;;;34.78;33.83;99546.16;5070533;28;20215;-66
2022/06/02 06:49:51;;;;;;;6.10;3.63;;;;;;;34.69;34.41;99534.44;5065100;28;20659;-66
2022/06/02 06:52:35;;;;;;;4.97;3.33;;;;;;;34.47;34.21;99548.84;5055626;28;20191;-66
2022/06/02 06:55:15;;;;;;;5.88;3.50;;;;;;;34.68;33.61;99544.72;5057431;28;20667;-66
2022/06/02 06:57:49;;;;;;;9.43;4.07;;;;;;;34.86;33.40;99540.47;5095579;28;20191;-67
2022/06/02 07:00:21;;;;;;;4.25;3.55;;;;;;;34.85;33.23;99546.34;5095540;28;20240;-65
2022/06/02 07:03:05;;;;;;;3.63;3.20;;;;;;;34.90;33.32;99546.13;5095158;28;20288;-65
2022/06/02 07:05:38;;;;;;;7.43;3.40;;;;;;;35.27;32.52;99550.22;5096184;28;20188;-66
2022/06/02 07:08:17;;;;;;;18.27;4.15;;;;;;;35.48;32.08;99548.00;5095096;28;20203;-66
2022/06/02 07:10:53;;;;;;;5.35;2.95;;;;;;;35.15;32.86;99545.56;5095743;28;20237;-66
2022/06/02 07:13:26;;;;;;;3.38;3.08;;;;;;;35.03;33.29;99544.88;5095157;28;20540;-65
2022/06/02 07:15:57;;;;;;;8.52;3.95;;;;;;;35.05;32.65;99545.28;5094735;28;20643;-65
2022/06/02 07:18:38;;;;;;;6.72;3.10;;;;;;;35.37;32.58;99549.69;5094944;28;20649;-65
2022/06/02 07:21:17;;;;;;;3.58;3.20;;;;;;;35.61;31.93;99555.81;5095021;28;20535;-66
2022/06/02 07:23:56;;;;;;;4.93;3.30;;;;;;;35.48;31.51;99559.03;5095021;28;20198;-66
2022/06/02 07:26:38;;;;;;;4.55;2.78;;;;;;;35.67;31.18;99550.78;5094321;28;20724;-69
2022/06/02 07:29:18;;;;;;;3.25;2.90;;;;;;;35.65;30.96;99558.66;5093788;28;20208;-66
2022/06/02 07:32:11;;;;;;;9.82;3.00;;;;;;;35.85;31.51;99560.34;5093773;28;20248;-66
2022/06/02 07:35:04;;;;;;;3.22;2.92;;;;;;;36.26;30.72;99562.44;5073698;28;20187;-67
2022/06/02 07:37:37;;;;;;;7.03;3.67;;;;;;;36.47;30.88;99565.63;5094357;28;20698;-68
2022/06/02 07:40:23;;;;;;;5.15;3.15;;;;;;;36.59;30.29;99557.97;5091816;28;20188;-68
2022/06/02 07:43:41;;;;;;;5.45;3.33;;;;;;;36.59;30.30;99557.19;5074300;28;20261;-68
2022/06/02 07:46:40;;;;;;;7.97;3.13;;;;;;;36.68;30.62;99553.03;5074385;28;20188;-66
2022/06/02 07:49:47;;;;;;;3.38;3.17;;;;;;;36.79;30.10;99561.53;5068748;28;20226;-66
2022/06/02 07:52:23;;;;;;;5.80;3.50;;;;;;;36.71;28.83;99563.38;4992550;28;20253;-68
2022/06/02 07:55:00;;;;;;;4.72;3.25;;;;;;;36.57;29.23;99565.03;4992567;28;20634;-68
2022/06/02 07:57:41;;;;;;;5.25;3.38;;;;;;;36.50;30.10;99551.06;5016309;28;20197;-68
2022/06/02 08:00:14;;;;;;;10.30;3.40;;;;;;;36.46;29.61;99555.75;5034460;28;20235;-68
2022/06/02 08:03:02;;;;;;;6.68;3.47;;;;;;;36.59;29.92;99557.19;5033635;28;20186;-67
2022/06/02 08:05:37;;;;;;;7.53;2.83;;;;;;;36.71;29.18;99548.72;5033691;28;20185;-69
2022/06/02 08:08:15;;;;;;;3.08;2.88;;;;;;;36.87;29.41;99557.75;5033889;28;20593;-67
2022/06/02 08:10:56;;;;;;;6.72;3.25;;;;;;;36.87;28.43;99552.19;5033748;28;20192;-67
2022/06/02 08:13:35;;;;;;;8.80;3.40;;;;;;;36.80;29.42;99533.50;5033795;28;20223;-66
2022/06/02 08:16:08;;;;;;;4.85;2.90;;;;;;;36.94;29.14;99557.84;5033393;28;20254;-65
2022/06/02 08:19:00;;;;;;;6.93;3.05;;;;;;;37.00;28.85;99539.75;5033732;28;20244;-65
2022/06/02 08:21:31;;;;;;;3.33;3.03;;;;;;;37.27;28.62;99549.72;5034080;28;20273;-67
2022/06/02 08:24:41;;;;;;;3.80;3.28;;;;;;;37.48;28.13;99550.09;5033801;28;20256;-67
2022/06/02 08:27:41;;;;;;;3.65;3.35;;;;;;;37.38;27.72;99545.16;5033622;28;20197;-79
2022/06/02 08:30:13;;;;;;;5.15;3.33;;;;;;;37.57;27.86;99550.63;5033369;28;20572;-78
2022/06/02 08:33:04;;;;;;;3.67;3.38;;;;;;;37.54;27.75;99536.69;5033712;28;20267;-83
2022/06/02 08:35:40;;;;;;;3.33;3.03;;;;;;;37.38;27.88;99542.41;5029927;28;20244;-80
2022/06/02 08:38:35;;;;;;;6.65;3.30;;;;;;;37.29;27.53;99536.31;5033273;28;20189;-76
2022/06/02 08:41:48;;;;;;;5.65;3.45;;;;;;;37.31;28.55;99539.50;5033170;28;20648;-81
2022/06/02 08:44:51;;;;;;;4.50;3.33;;;;;;;36.00;29.44;99531.81;5013332;28;20638;-80
2022/06/02 08:47:48;;;;;;;10.25;3.85;;;;;;;35.94;29.82;99530.50;5014162;28;20189;-82
2022/06/02 08:50:37;;;;;;;4.10;3.42;;;;;;;35.95;29.95;99518.25;5029394;28;20224;-82
2022/06/02 08:53:43;;;;;;;4.25;3.38;;;;;;;36.14;29.76;99530.13;5053156;28;20189;-80
2022/06/02 08:56:32;;;;;;;3.63;3.30;;;;;;;36.41;29.44;99529.16;5053497;28;20274;-78
2022/06/02 08:59:32;;;;;;;3.58;3.15;;;;;;;36.30;29.43;99530.09;5053659;28;20193;-80
2022/06/02 09:02:25;;;;;;;6.13;3.42;;;;;;;36.57;29.43;99523.50;5053264;28;20185;-79
2022/06/02 09:05:25;;;;;;;3.65;2.90;;;;;;;36.62;27.70;99529.53;5053630;28;20185;-80
2022/06/02 09:08:11;;;;;;;3.50;3.08;;;;;;;36.84;27.70;99525.22;5052966;28;20213;-80
2022/06/02 09:11:03;;;;;;;5.30;3.22;;;;;;;36.49;28.57;99510.69;5052991;28;20185;-82
2022/06/02 09:14:00;;;;;;;6.50;3.55;;;;;;;36.63;28.71;99524.81;5052487;28;20196;-81
2022/06/02 09:16:35;;;;;;;2.80;2.60;;;;;;;36.70;27.48;99525.78;5052575;28;20241;-82
2022/06/02 09:19:35;;;;;;;5.22;3.20;;;;;;;36.81;28.78;99521.22;5053579;28;20230;-83
2022/06/02 09:22:31;;;;;;;7.10;3.08;;;;;;;36.91;28.56;99522.59;5052406;28;20192;-78
2022/06/02 09:25:07;;;;;;;5.78;3.15;;;;;;;36.84;27.58;99534.34;5052637;28;20196;-79
2022/06/02 09:28:12;;;;;;;2.95;2.75;;;;;;;36.91;27.51;99536.44;5052304;28;20184;-83
2022/06/02 09:30:53;;;;;;;4.68;2.78;;;;;;;36.84;25.91;99530.78;5052165;28;20638;-81
2022/06/02 09:33:43;;;;;;;3.30;3.00;;;;;;;36.68;26.75;99532.84;5052685;28;20239;-82
2022/06/02 09:36:37;;;;;;;4.22;3.70;;;;;;;36.76;26.92;99529.84;5052584;28;20216;-81
2022/06/02 09:39:25;;;;;;;3.45;2.95;;;;;;;36.52;27.94;99519.09;5047161;28;20208;-82
2022/06/02 09:42:10;;;;;;;3.60;2.90;;;;;;;36.62;28.05;99523.22;5070008;28;20619;-69
2022/06/02 09:44:55;;;;;;;4.30;3.08;;;;;;;36.44;28.39;99517.34;5080675;28;20199;-78
2022/06/02 09:47:48;;;;;;;4.30;3.90;;;;;;;36.03;28.97;99522.78;5091911;28;20190;-75
2022/06/02 09:50:45;;;;;;;6.97;3.20;;;;;;;36.39;28.38;99525.16;5052221;28;20287;-72
2022/06/02 09:53:37;;;;;;;5.10;3.17;;;;;;;36.44;28.12;99511.00;5051418;28;20181;-74
2022/06/02 09:56:36;;;;;;;5.07;3.50;;;;;;;36.22;28.47;99515.31;5052069;28;20246;-71
2022/06/02 09:59:18;;;;;;;4.05;3.20;;;;;;;36.22;28.46;99514.53;5018386;28;20243;-76
2022/06/02 10:02:01;;;;;;;3.60;3.40;;;;;;;36.05;28.27;99498.34;5052603;28;20599;-73
2022/06/02 10:04:54;;;;;;;2.95;2.78;;;;;;;36.29;28.17;99503.59;5051667;28;20230;-74
2022/06/02 10:07:41;;;;;;;4.70;3.03;;;;;;;36.57;27.83;99509.66;5052442;28;20246;-73
2022/06/02 10:10:34;;;;;;;5.97;3.20;;;;;;;36.89;26.59;99511.88;5052281;28;20193;-73
2022/06/02 10:13:31;;;;;;;4.38;2.90;;;;;;;36.74;26.99;99507.25;5051631;28;20667;-74
2022/06/02 10:16:30;;;;;;;4.72;3.00;;;;;;;36.45;28.25;99512.59;5051926;28;20188;-75
2022/06/02 10:19:29;;;;;;;6.47;3.03;;;;;;;36.45;27.38;99495.97;5008468;28;20204;-75
2022/06/02 10:22:05;;;;;;;3.70;3.40;;;;;;;36.49;27.04;99497.66;5052799;28;20247;-79
2022/06/02 10:24:59;;;;;;;4.35;3.25;;;;;;;36.33;27.21;99494.19;5052878;28;20598;-80
2022/06/02 10:28:07;;;;;;;4.45;3.05;;;;;;;36.56;26.55;99485.91;5051797;28;20726;-81
2022/06/02 10:31:21;;;;;;;3.42;2.95;;;;;;;36.82;26.72;99484.06;5051884;28;20246;-80
2022/06/02 10:34:41;;;;;;;4.75;2.75;;;;;;;36.87;26.47;99488.50;5024866;28;20254;-80
2022/06/02 10:37:32;;;;;;;3.38;3.08;;;;;;;36.66;26.00;99486.09;5051950;28;20731;-80
2022/06/02 10:40:13;;;;;;;4.57;2.72;;;;;;;36.48;26.93;99479.47;5054624;28;20192;-80
2022/06/02 10:43:07;;;;;;;3.60;2.90;;;;;;;36.58;26.25;99484.38;5071539;28;20612;-80
2022/06/02 10:46:22;;;;;;;4.47;3.28;;;;;;;36.84;25.96;99475.38;5071741;28;20192;-80
2022/06/02 10:49:14;;;;;;;3.22;2.92;;;;;;;37.00;25.79;99468.50;5053874;28;20226;-80
2022/06/02 10:52:23;;;;;;;6.15;2.78;;;;;;;37.12;25.08;99468.31;5072239;28;20263;-79
2022/06/02 10:55:22;;;;;;;4.15;2.85;;;;;;;37.09;25.44;99468.28;5071456;28;20644;-77
2022/06/02 10:58:32;;;;;;;3.00;2.75;;;;;;;37.18;24.36;99468.81;5071218;28;20226;-80
2022/06/02 11:01:37;;;;;;;3.20;2.90;;;;;;;36.73;24.80;99466.06;5071628;28;20243;-77
2022/06/02 11:04:49;;;;;;;9.13;3.47;;;;;;;36.73;25.51;99457.78;5071391;28;20606;-78
2022/06/02 11:07:57;;;;;;;3.35;3.13;;;;;;;36.64;26.08;99449.69;5075361;28;20192;-77
2022/06/02 11:10:30;;;;;;;4.13;3.33;;;;;;;36.40;27.11;99452.81;5037515;28;20657;-75
2022/06/02 11:13:33;;;;;;;2.47;2.28;;;;;;;36.32;25.57;99464.09;5074562;28;20664;-72
2022/06/02 11:16:32;;;;;;;3.28;2.30;;;;;;;35.98;26.49;99445.63;5073132;28;20676;-74
2022/06/02 11:19:37;;;;;;;6.25;2.55;;;;;;;35.44;26.84;99444.84;5075007;28;20644;-73
2022/06/02 11:22:36;;;;;;;3.42;2.72;;;;;;;35.17;26.88;99440.25;5074536;28;20325;-73
2022/06/02 11:25:31;;;;;;;2.67;2.47;;;;;;;34.99;27.50;99434.28;5070043;28;20195;-74
2022/06/02 11:28:47;;;;;;;3.75;3.33;;;;;;;35.04;27.97;99430.47;5075511;28;20196;-74
2022/06/02 11:31:58;;;;;;;8.00;3.35;;;;;;;35.07;27.74;99432.50;5089151;28;20199;-76
2022/06/02 11:34:54;;;;;;;4.47;2.90;;;;;;;35.31;27.65;99427.56;5094390;28;20248;-72
2022/06/02 11:37:46;;;;;;;3.53;2.55;;;;;;;35.08;28.17;99426.63;5094794;28;20199;-76
2022/06/02 11:40:30;;;;;;;3.28;2.78;;;;;;;35.01;28.07;99431.16;5089929;28;20651;-74
2022/06/02 11:43:11;;;;;;;6.80;3.00;;;;;;;35.14;28.57;99418.84;5073933;28;20667;-78
2022/06/02 11:46:19;;;;;;;3.97;3.10;;;;;;;35.10;28.29;99417.97;5074213;28;20180;-78
2022/06/02 11:49:13;;;;;;;3.38;3.03;;;;;;;34.94;28.32;99414.47;5053834;28;20276;-76
2022/06/02 11:52:01;;;;;;;5.43;2.45;;;;;;;35.04;28.11;99416.66;5075185;28;20234;-76
2022/06/02 11:54:52;;;;;;;3.83;2.75;;;;;;;35.20;28.48;99415.47;5072604;28;20282;-77
2022/06/02 11:57:44;;;;;;;3.05;2.83;;;;;;;35.42;27.98;99414.00;5073858;28;20250;-73
2022/06/02 12:00:53;;;;;;;5.55;3.00;;;;;;;35.39;27.22;99415.53;5073963;28;20224;-76
2022/06/02 12:04:02;;;;;;;7.00;3.28;;;;;;;35.02;27.59;99411.47;5074032;28;20261;-77
2022/06/02 12:06:59;;;;;;;3.15;2.85;;;;;;;34.60;27.89;99415.13;4992653;28;20570;-75
2022/06/02 12:09:46;;;;;;;3.90;3.55;;;;;;;34.66;28.07;99408.22;5073808;28;20207;-72
2022/06/02 12:12:32;;;;;;;4.03;3.05;;;;;;;34.79;28.28;99390.38;5073622;28;20184;-76
2022/06/02 12:15:41;;;;;;;5.78;3.55;;;;;;;34.87;28.19;99395.72;5072869;28;20605;-75
2022/06/02 12:18:31;;;;;;;6.15;3.00;;;;;;;34.98;28.79;99387.72;5073459;28;20293;-76
2022/06/02 12:21:28;;;;;;;4.40;3.10;;;;;;;34.85;28.45;99380.69;5073313;28;20223;-77
2022/06/02 12:24:13;;;;;;;2.88;2.65;;;;;;;34.84;28.25;99384.63;5073901;28;20188;-78
2022/06/02 12:27:03;;;;;;;2.97;2.78;;;;;;;34.87;28.04;99376.41;5073279;28;20245;-77
2022/06/02 12:29:50;;;;;;;2.67;2.47;;;;;;;34.61;27.70;99353.25;5073184;28;20208;-77
2022/06/02 12:32:36;;;;;;;4.20;2.35;;;;;;;34.92;27.29;99378.09;5073466;28;20246;-77
2022/06/02 12:35:31;;;;;;;4.60;2.33;;;;;;;34.74;27.63;99376.88;5073161;28;20188;-79
2022/06/02 12:38:26;;;;;;;4.55;2.83;;;;;;;34.53;27.55;99376.34;5072972;28;20211;-78
2022/06/02 12:41:29;;;;;;;10.27;7.95;;;;;;;34.55;27.96;99368.50;5072914;28;20697;-80
2022/06/02 12:44:31;;;;;;;3.38;3.17;;;;;;;34.62;27.54;99374.19;5042995;28;20735;-79
2022/06/02 12:47:41;;;;;;;3.88;2.75;;;;;;;34.65;27.74;99362.41;5052900;28;20185;-77
2022/06/02 12:50:35;;;;;;;2.85;2.55;;;;;;;34.55;28.90;99355.50;5052878;28;20684;-75
2022/06/02 12:53:43;;;;;;;6.13;3.05;;;;;;;34.57;28.16;99352.41;5058116;28;20238;-76
2022/06/02 12:56:34;;;;;;;6.13;2.78;;;;;;;34.74;28.52;99361.06;5063630;28;20183;-71
2022/06/02 12:59:34;;;;;;;3.67;3.22;;;;;;;34.75;27.53;99361.91;5063203;28;20184;-73
2022/06/02 13:02:07;;;;;;;6.15;2.53;;;;;;;34.25;28.61;99348.78;5062777;28;20245;-74
2022/06/02 13:05:13;;;;;;;4.07;2.80;;;;;;;34.02;29.26;99349.75;5070434;28;20189;-73
2022/06/02 13:08:30;;;;;;;4.82;2.83;;;;;;;34.30;28.53;99344.97;5073051;28;20184;-72